createdAt,value
2023-04-20T00:02:05.000Z,989.48
2023-04-20T00:07:00.000Z,989.47
2023-04-20T00:11:54.000Z,989.45
2023-04-20T00:16:48.000Z,989.33
2023-04-20T00:21:42.000Z,989.25
2023-04-20T00:26:36.000Z,988.98
2023-04-20T00:31:30.000Z,989.00
2023-04-20T00:36:25.000Z,988.92
2023-04-20T00:41:19.000Z,988.90
2023-04-20T00:46:13.000Z,988.77
2023-04-20T00:51:06.000Z,988.73
2023-04-20T00:56:00.000Z,988.69
2023-04-20T01:00:55.000Z,988.57
2023-04-20T01:05:49.000Z,988.51
2023-04-20T01:10:43.000Z,988.46
2023-04-20T01:15:37.000Z,988.33
2023-04-20T01:20:30.000Z,988.31
2023-04-20T01:25:23.000Z,988.24
2023-04-20T01:30:18.000Z,988.13
2023-04-20T01:35:10.000Z,988.13
2023-04-20T01:40:04.000Z,987.99
2023-04-20T01:44:58.000Z,988.11
2023-04-20T01:49:53.000Z,987.98
2023-04-20T01:54:47.000Z,988.05
2023-04-20T01:59:42.000Z,988.07
2023-04-20T02:04:36.000Z,988.02
2023-04-20T02:09:31.000Z,988.03
2023-04-20T02:14:23.000Z,988.00
2023-04-20T02:19:17.000Z,988.01
2023-04-20T02:24:12.000Z,987.96
2023-04-20T02:29:06.000Z,987.90
2023-04-20T02:34:01.000Z,987.80
2023-04-20T02:38:55.000Z,987.74
2023-04-20T02:43:49.000Z,987.72
2023-04-20T02:48:43.000Z,987.67
2023-04-20T02:53:37.000Z,987.53
2023-04-20T02:58:30.000Z,987.45
2023-04-20T03:03:24.000Z,987.47
2023-04-20T03:08:18.000Z,987.44
2023-04-20T03:13:13.000Z,987.33
2023-04-20T03:18:06.000Z,987.36
2023-04-20T03:23:00.000Z,987.35
2023-04-20T03:27:54.000Z,987.36
2023-04-20T03:32:48.000Z,987.39
2023-04-20T03:37:42.000Z,987.41
2023-04-20T03:42:36.000Z,987.39
2023-04-20T03:47:30.000Z,987.34
2023-04-20T03:52:21.000Z,987.35
2023-04-20T03:57:15.000Z,987.32
2023-04-20T04:02:10.000Z,987.28
2023-04-20T04:07:03.000Z,987.24
2023-04-20T04:11:56.000Z,987.28
2023-04-20T04:16:50.000Z,987.24
2023-04-20T04:21:42.000Z,987.30
2023-04-20T04:26:37.000Z,987.35
2023-04-20T04:31:28.000Z,987.25
2023-04-20T04:36:22.000Z,987.18
2023-04-20T04:41:16.000Z,987.21
2023-04-20T04:46:09.000Z,987.20
2023-04-20T04:51:02.000Z,987.10
2023-04-20T04:55:55.000Z,987.15
2023-04-20T05:00:49.000Z,987.20
2023-04-20T05:05:43.000Z,987.19
2023-04-20T05:10:37.000Z,987.17
2023-04-20T05:15:31.000Z,987.27
2023-04-20T05:20:25.000Z,987.32
2023-04-20T05:25:19.000Z,987.31
2023-04-20T05:30:13.000Z,987.25
2023-04-20T05:35:07.000Z,987.22
2023-04-20T05:40:00.000Z,987.18
2023-04-20T05:44:53.000Z,987.19
2023-04-20T05:49:48.000Z,987.13
2023-04-20T05:54:41.000Z,987.17
2023-04-20T05:59:35.000Z,987.16
2023-04-20T06:04:30.000Z,987.21
2023-04-20T06:09:24.000Z,987.04
2023-04-20T06:14:18.000Z,987.00
2023-04-20T06:19:12.000Z,987.06
2023-04-20T06:24:06.000Z,987.03
2023-04-20T06:28:58.000Z,986.99
2023-04-20T06:33:50.000Z,986.99
2023-04-20T06:38:44.000Z,987.04
2023-04-20T06:43:38.000Z,987.06
2023-04-20T06:48:32.000Z,987.00
2023-04-20T06:53:26.000Z,986.97
2023-04-20T06:58:20.000Z,987.04
2023-04-20T07:03:14.000Z,986.91
2023-04-20T07:08:07.000Z,986.95
2023-04-20T07:13:01.000Z,986.99
2023-04-20T07:17:56.000Z,986.96
2023-04-20T07:22:49.000Z,986.90
2023-04-20T07:27:42.000Z,986.91
2023-04-20T07:32:36.000Z,986.85
2023-04-20T07:37:34.000Z,986.85
2023-04-20T07:42:25.000Z,986.90
2023-04-20T07:47:17.000Z,986.95
2023-04-20T07:52:11.000Z,986.94
2023-04-20T07:57:05.000Z,986.97
2023-04-20T08:01:59.000Z,986.93
2023-04-20T08:06:52.000Z,986.99
2023-04-20T08:11:45.000Z,986.92
2023-04-20T08:16:40.000Z,986.97
2023-04-20T08:21:34.000Z,986.98
2023-04-20T08:26:28.000Z,987.01
2023-04-20T08:31:22.000Z,986.92
2023-04-20T08:36:16.000Z,986.89
2023-04-20T08:41:09.000Z,986.93
2023-04-20T08:46:03.000Z,986.81
2023-04-20T08:50:58.000Z,986.77
2023-04-20T08:55:53.000Z,986.69
2023-04-20T09:00:47.000Z,986.73
2023-04-20T09:05:41.000Z,986.74
2023-04-20T09:10:34.000Z,986.82
2023-04-20T09:15:28.000Z,986.82
2023-04-20T09:20:22.000Z,986.75
2023-04-20T09:25:16.000Z,986.70
2023-04-20T09:30:10.000Z,986.76
2023-04-20T09:35:04.000Z,986.81
2023-04-20T09:39:58.000Z,986.90
2023-04-20T09:44:52.000Z,987.01
2023-04-20T09:49:46.000Z,986.89
2023-04-20T09:54:41.000Z,986.85
2023-04-20T09:59:35.000Z,986.91
2023-04-20T10:04:29.000Z,986.89
2023-04-20T10:09:23.000Z,986.88
2023-04-20T10:14:15.000Z,986.93
2023-04-20T10:19:09.000Z,986.89
2023-04-20T10:24:03.000Z,986.81
2023-04-20T10:28:57.000Z,986.83
2023-04-20T10:33:50.000Z,986.78
2023-04-20T10:38:44.000Z,986.68
2023-04-20T10:43:37.000Z,986.58
2023-04-20T10:48:29.000Z,986.61
2023-04-20T10:53:23.000Z,986.52
2023-04-20T10:58:18.000Z,986.49
2023-04-20T11:03:12.000Z,986.52
2023-04-20T11:08:06.000Z,986.32
2023-04-20T11:13:01.000Z,986.36
2023-04-20T11:17:54.000Z,986.32
2023-04-20T11:22:49.000Z,986.13
2023-04-20T11:27:45.000Z,986.15
2023-04-20T11:32:40.000Z,986.10
2023-04-20T11:37:34.000Z,986.09
2023-04-20T11:42:27.000Z,986.07
2023-04-20T11:47:20.000Z,985.97
2023-04-20T11:52:14.000Z,985.95
2023-04-20T11:57:08.000Z,985.78
2023-04-20T12:02:05.000Z,985.74
2023-04-20T12:07:00.000Z,985.69
2023-04-20T12:11:53.000Z,985.66
2023-04-20T12:16:46.000Z,985.53
2023-04-20T12:21:41.000Z,985.57
2023-04-20T12:26:34.000Z,985.57
2023-04-20T12:31:28.000Z,985.49
2023-04-20T12:36:22.000Z,985.49
2023-04-20T12:41:15.000Z,985.42
2023-04-20T12:46:08.000Z,985.32
2023-04-20T12:51:01.000Z,985.26
2023-04-20T12:55:55.000Z,985.30
2023-04-20T13:00:49.000Z,985.38
2023-04-20T13:05:42.000Z,985.43
2023-04-20T13:10:34.000Z,985.38
2023-04-20T13:15:28.000Z,985.28
2023-04-20T13:20:22.000Z,985.23
2023-04-20T13:25:17.000Z,985.45
2023-04-20T13:30:10.000Z,985.48
2023-04-20T13:35:03.000Z,985.46
2023-04-20T13:39:57.000Z,985.35
2023-04-20T13:44:51.000Z,985.26
2023-04-20T13:49:45.000Z,985.20
2023-04-20T13:54:39.000Z,985.08
2023-04-20T13:59:33.000Z,984.89
2023-04-20T14:04:27.000Z,984.77
2023-04-20T14:09:21.000Z,984.80
2023-04-20T14:14:16.000Z,984.66
2023-04-20T14:19:09.000Z,984.67
2023-04-20T14:24:03.000Z,984.72
2023-04-20T14:28:58.000Z,984.73
2023-04-20T14:33:55.000Z,984.70
2023-04-20T14:38:51.000Z,984.55
2023-04-20T14:43:47.000Z,984.52
2023-04-20T14:48:42.000Z,984.48
2023-04-20T14:53:37.000Z,984.64
2023-04-20T14:58:29.000Z,984.84
2023-04-20T15:03:20.000Z,985.01
2023-04-20T15:08:12.000Z,985.06
2023-04-20T15:13:04.000Z,985.09
2023-04-20T15:17:57.000Z,985.03
2023-04-20T15:22:50.000Z,985.13
2023-04-20T15:27:44.000Z,985.07
2023-04-20T15:32:38.000Z,984.97
2023-04-20T15:37:33.000Z,984.98
2023-04-20T15:42:26.000Z,984.96
2023-04-20T15:47:20.000Z,985.07
2023-04-20T15:52:15.000Z,985.00
2023-04-20T15:57:08.000Z,985.00
2023-04-20T16:02:03.000Z,984.99
2023-04-20T16:06:57.000Z,985.04
2023-04-20T16:11:48.000Z,985.13
2023-04-20T16:16:42.000Z,985.10
2023-04-20T16:21:36.000Z,985.08
2023-04-20T16:26:30.000Z,985.22
2023-04-20T16:31:24.000Z,985.16
2023-04-20T16:36:18.000Z,985.18
2023-04-20T16:41:12.000Z,985.19
2023-04-20T16:46:06.000Z,985.32
2023-04-20T16:51:00.000Z,985.23
2023-04-20T16:55:54.000Z,985.31
2023-04-20T17:00:48.000Z,985.13
2023-04-20T17:05:42.000Z,985.25
2023-04-20T17:10:36.000Z,985.18
2023-04-20T17:15:30.000Z,985.18
2023-04-20T17:20:23.000Z,985.20
2023-04-20T17:25:15.000Z,985.28
2023-04-20T17:30:07.000Z,985.30
2023-04-20T17:35:01.000Z,985.18
2023-04-20T17:39:54.000Z,985.29
2023-04-20T17:44:48.000Z,985.24
2023-04-20T17:49:42.000Z,985.14
2023-04-20T17:54:36.000Z,985.16
2023-04-20T17:59:30.000Z,985.24
2023-04-20T18:04:23.000Z,985.28
2023-04-20T18:09:18.000Z,985.23
2023-04-20T18:14:10.000Z,985.15
2023-04-20T18:19:05.000Z,985.25
2023-04-20T18:23:59.000Z,985.33
2023-04-20T18:28:52.000Z,985.40
2023-04-20T18:33:46.000Z,985.42
2023-04-20T18:38:39.000Z,985.40
2023-04-20T18:43:33.000Z,985.37
2023-04-20T18:48:27.000Z,985.27
2023-04-20T18:53:21.000Z,985.24
2023-04-20T18:58:14.000Z,985.34
2023-04-20T19:03:08.000Z,985.40
2023-04-20T19:08:02.000Z,985.40
2023-04-20T19:12:55.000Z,985.27
2023-04-20T19:17:49.000Z,985.12
2023-04-20T19:22:43.000Z,985.20
2023-04-20T19:27:37.000Z,985.28
2023-04-20T19:32:29.000Z,985.28
2023-04-20T19:37:22.000Z,985.31
2023-04-20T19:42:16.000Z,985.50
2023-04-20T19:47:09.000Z,985.57
2023-04-20T19:52:04.000Z,985.53
2023-04-20T19:56:58.000Z,985.54
2023-04-20T20:01:52.000Z,985.65
2023-04-20T20:06:45.000Z,985.55
2023-04-20T20:11:39.000Z,985.63
2023-04-20T20:16:32.000Z,985.54
2023-04-20T20:21:26.000Z,985.56
2023-04-20T20:26:20.000Z,985.45
2023-04-20T20:31:14.000Z,985.45
2023-04-20T20:36:05.000Z,985.38
2023-04-20T20:40:59.000Z,985.31
2023-04-20T20:45:53.000Z,985.47
2023-04-20T20:50:48.000Z,985.45
2023-04-20T20:55:41.000Z,985.32
2023-04-20T21:00:36.000Z,985.13
2023-04-20T21:05:30.000Z,985.17
2023-04-20T21:10:21.000Z,985.21
2023-04-20T21:15:15.000Z,985.19
2023-04-20T21:20:08.000Z,985.21
2023-04-20T21:25:04.000Z,985.26
2023-04-20T21:29:57.000Z,985.17
2023-04-20T21:34:51.000Z,984.96
2023-04-20T21:39:45.000Z,985.26
2023-04-20T21:44:39.000Z,985.42
2023-04-20T21:49:33.000Z,985.33
2023-04-20T21:54:27.000Z,985.16
2023-04-20T21:59:21.000Z,985.20
2023-04-20T22:04:15.000Z,985.30
2023-04-20T22:09:09.000Z,985.23
2023-04-20T22:14:03.000Z,985.07
2023-04-20T22:18:54.000Z,984.92
2023-04-20T22:23:48.000Z,984.85
2023-04-20T22:28:42.000Z,985.04
2023-04-20T22:33:36.000Z,984.99
2023-04-20T22:38:31.000Z,984.82
2023-04-20T22:43:22.000Z,984.92
2023-04-20T22:48:16.000Z,984.81
2023-04-20T22:53:09.000Z,984.86
2023-04-20T22:58:03.000Z,984.77
2023-04-20T23:02:57.000Z,984.72
2023-04-20T23:07:52.000Z,984.76
2023-04-20T23:12:45.000Z,984.62
2023-04-20T23:17:39.000Z,984.57
2023-04-20T23:22:33.000Z,984.53
2023-04-20T23:27:27.000Z,984.47
2023-04-20T23:32:21.000Z,984.44
2023-04-20T23:37:14.000Z,984.36
2023-04-20T23:42:07.000Z,984.46
2023-04-20T23:47:02.000Z,984.56
2023-04-20T23:51:55.000Z,984.54
2023-04-20T23:56:50.000Z,984.58
